sensor_id;sensor_type;location;lat;lon;timestamp;temperature;humidity
18365;DHT22;9309;52.126;11.616;2023-04-06T00:00:00;2.10;67.50
18365;DHT22;9309;52.126;11.616;2023-04-06T00:02:28;2.10;68.30
18365;DHT22;9309;52.126;11.616;2023-04-06T00:04:55;2.10;67.90
18365;DHT22;9309;52.126;11.616;2023-04-06T00:07:21;2.10;67.60
18365;DHT22;9309;52.126;11.616;2023-04-06T00:09:48;2.10;67.80
18365;DHT22;9309;52.126;11.616;2023-04-06T00:12:15;2.00;68.50
18365;DHT22;9309;52.126;11.616;2023-04-06T00:14:42;2.00;68.90
18365;DHT22;9309;52.126;11.616;2023-04-06T00:17:08;2.00;68.70
18365;DHT22;9309;52.126;11.616;2023-04-06T00:19:36;2.00;69.10
18365;DHT22;9309;52.126;11.616;2023-04-06T00:22:03;2.00;69.00
18365;DHT22;9309;52.126;11.616;2023-04-06T00:24:30;2.00;68.80
18365;DHT22;9309;52.126;11.616;2023-04-06T00:26:57;2.00;69.20
18365;DHT22;9309;52.126;11.616;2023-04-06T00:29:23;1.90;69.00
18365;DHT22;9309;52.126;11.616;2023-04-06T00:31:50;1.70;69.60
18365;DHT22;9309;52.126;11.616;2023-04-06T00:34:17;1.80;69.10
18365;DHT22;9309;52.126;11.616;2023-04-06T00:36:45;1.80;68.80
18365;DHT22;9309;52.126;11.616;2023-04-06T00:39:11;1.90;69.30
18365;DHT22;9309;52.126;11.616;2023-04-06T00:41:38;1.90;69.10
18365;DHT22;9309;52.126;11.616;2023-04-06T00:44:06;1.90;69.40
18365;DHT22;9309;52.126;11.616;2023-04-06T00:46:32;1.80;69.80
18365;DHT22;9309;52.126;11.616;2023-04-06T00:48:59;1.50;70.80
18365;DHT22;9309;52.126;11.616;2023-04-06T00:51:26;1.50;71.60
18365;DHT22;9309;52.126;11.616;2023-04-06T00:53:54;1.60;70.40
18365;DHT22;9309;52.126;11.616;2023-04-06T00:56:22;1.70;69.90
18365;DHT22;9309;52.126;11.616;2023-04-06T00:58:52;1.80;69.80
18365;DHT22;9309;52.126;11.616;2023-04-06T01:01:19;1.80;69.70
18365;DHT22;9309;52.126;11.616;2023-04-06T01:03:48;1.60;70.10
18365;DHT22;9309;52.126;11.616;2023-04-06T01:06:17;1.50;70.70
18365;DHT22;9309;52.126;11.616;2023-04-06T01:08:50;1.60;70.00
18365;DHT22;9309;52.126;11.616;2023-04-06T01:11:24;1.50;70.60
18365;DHT22;9309;52.126;11.616;2023-04-06T01:13:52;1.50;71.10
18365;DHT22;9309;52.126;11.616;2023-04-06T01:16:41;1.30;71.80
18365;DHT22;9309;52.126;11.616;2023-04-06T01:19:17;1.10;73.20
18365;DHT22;9309;52.126;11.616;2023-04-06T01:21:47;1.20;73.40
18365;DHT22;9309;52.126;11.616;2023-04-06T01:24:32;1.40;72.50
18365;DHT22;9309;52.126;11.616;2023-04-06T01:27:02;1.40;72.70
18365;DHT22;9309;52.126;11.616;2023-04-06T01:29:51;1.30;73.10
18365;DHT22;9309;52.126;11.616;2023-04-06T01:32:31;1.40;72.80
18365;DHT22;9309;52.126;11.616;2023-04-06T01:34:58;1.40;72.70
18365;DHT22;9309;52.126;11.616;2023-04-06T01:37:26;1.30;73.10
18365;DHT22;9309;52.126;11.616;2023-04-06T01:39:57;1.10;74.20
18365;DHT22;9309;52.126;11.616;2023-04-06T01:42:36;1.20;74.10
18365;DHT22;9309;52.126;11.616;2023-04-06T01:45:04;1.20;74.00
18365;DHT22;9309;52.126;11.616;2023-04-06T01:47:31;1.10;74.50
18365;DHT22;9309;52.126;11.616;2023-04-06T01:49:59;1.00;75.00
18365;DHT22;9309;52.126;11.616;2023-04-06T01:52:25;1.00;75.30
18365;DHT22;9309;52.126;11.616;2023-04-06T01:54:53;1.10;74.90
18365;DHT22;9309;52.126;11.616;2023-04-06T01:57:36;1.20;74.60
18365;DHT22;9309;52.126;11.616;2023-04-06T02:00:12;1.00;75.70
18365;DHT22;9309;52.126;11.616;2023-04-06T02:02:39;1.10;75.40
18365;DHT22;9309;52.126;11.616;2023-04-06T02:05:12;1.00;75.50
18365;DHT22;9309;52.126;11.616;2023-04-06T02:07:40;0.80;76.50
18365;DHT22;9309;52.126;11.616;2023-04-06T02:10:11;0.90;76.40
18365;DHT22;9309;52.126;11.616;2023-04-06T02:12:40;1.00;75.60
18365;DHT22;9309;52.126;11.616;2023-04-06T02:15:10;1.10;75.10
18365;DHT22;9309;52.126;11.616;2023-04-06T02:17:38;1.10;74.90
18365;DHT22;9309;52.126;11.616;2023-04-06T02:20:06;1.10;74.80
18365;DHT22;9309;52.126;11.616;2023-04-06T02:22:33;1.00;74.70
18365;DHT22;9309;52.126;11.616;2023-04-06T02:25:00;1.00;75.30
18365;DHT22;9309;52.126;11.616;2023-04-06T02:27:27;1.00;75.30
18365;DHT22;9309;52.126;11.616;2023-04-06T02:29:55;1.10;75.10
18365;DHT22;9309;52.126;11.616;2023-04-06T02:32:22;1.00;75.10
18365;DHT22;9309;52.126;11.616;2023-04-06T02:34:49;0.90;76.10
18365;DHT22;9309;52.126;11.616;2023-04-06T02:37:18;1.00;75.90
18365;DHT22;9309;52.126;11.616;2023-04-06T02:39:46;1.00;75.10
18365;DHT22;9309;52.126;11.616;2023-04-06T02:42:13;0.90;75.70
18365;DHT22;9309;52.126;11.616;2023-04-06T02:44:41;0.90;76.10
18365;DHT22;9309;52.126;11.616;2023-04-06T02:47:10;0.80;76.50
18365;DHT22;9309;52.126;11.616;2023-04-06T02:49:38;0.70;76.80
18365;DHT22;9309;52.126;11.616;2023-04-06T02:52:05;0.80;76.30
18365;DHT22;9309;52.126;11.616;2023-04-06T02:54:34;0.80;76.50
18365;DHT22;9309;52.126;11.616;2023-04-06T02:57:02;0.80;76.10
18365;DHT22;9309;52.126;11.616;2023-04-06T02:59:38;0.90;76.20
18365;DHT22;9309;52.126;11.616;2023-04-06T03:02:13;0.80;75.60
18365;DHT22;9309;52.126;11.616;2023-04-06T03:04:40;0.70;76.60
18365;DHT22;9309;52.126;11.616;2023-04-06T03:07:16;0.80;76.20
18365;DHT22;9309;52.126;11.616;2023-04-06T03:09:43;0.70;76.40
18365;DHT22;9309;52.126;11.616;2023-04-06T03:12:10;0.80;76.30
18365;DHT22;9309;52.126;11.616;2023-04-06T03:14:57;0.70;76.60
18365;DHT22;9309;52.126;11.616;2023-04-06T03:17:26;0.40;78.20
18365;DHT22;9309;52.126;11.616;2023-04-06T03:19:55;0.40;79.60
18365;DHT22;9309;52.126;11.616;2023-04-06T03:22:23;0.40;78.80
18365;DHT22;9309;52.126;11.616;2023-04-06T03:24:49;0.10;80.40
18365;DHT22;9309;52.126;11.616;2023-04-06T03:27:16;0.10;80.60
18365;DHT22;9309;52.126;11.616;2023-04-06T03:29:44;0.20;79.80
18365;DHT22;9309;52.126;11.616;2023-04-06T03:32:15;0.40;78.90
18365;DHT22;9309;52.126;11.616;2023-04-06T03:34:43;0.30;79.80
18365;DHT22;9309;52.126;11.616;2023-04-06T03:37:10;0.30;79.80
18365;DHT22;9309;52.126;11.616;2023-04-06T03:39:44;0.30;79.40
18365;DHT22;9309;52.126;11.616;2023-04-06T03:42:16;0.30;78.80
18365;DHT22;9309;52.126;11.616;2023-04-06T03:44:49;0.20;79.70
18365;DHT22;9309;52.126;11.616;2023-04-06T03:47:17;0.30;79.40
18365;DHT22;9309;52.126;11.616;2023-04-06T03:49:45;0.10;80.10
18365;DHT22;9309;52.126;11.616;2023-04-06T03:52:13;0.30;79.70
18365;DHT22;9309;52.126;11.616;2023-04-06T03:54:40;0.40;79.40
18365;DHT22;9309;52.126;11.616;2023-04-06T03:57:09;0.40;78.80
18365;DHT22;9309;52.126;11.616;2023-04-06T03:59:36;0.40;78.40
18365;DHT22;9309;52.126;11.616;2023-04-06T04:02:03;0.40;78.80
18365;DHT22;9309;52.126;11.616;2023-04-06T04:04:30;0.40;79.00
18365;DHT22;9309;52.126;11.616;2023-04-06T04:06:58;0.50;79.00
18365;DHT22;9309;52.126;11.616;2023-04-06T04:09:25;0.50;79.10
18365;DHT22;9309;52.126;11.616;2023-04-06T04:11:52;0.40;78.80
18365;DHT22;9309;52.126;11.616;2023-04-06T04:14:19;0.50;78.60
18365;DHT22;9309;52.126;11.616;2023-04-06T04:16:46;0.30;78.90
18365;DHT22;9309;52.126;11.616;2023-04-06T04:19:13;0.20;79.80
18365;DHT22;9309;52.126;11.616;2023-04-06T04:21:43;0.20;80.00
18365;DHT22;9309;52.126;11.616;2023-04-06T04:24:13;0.30;79.80
18365;DHT22;9309;52.126;11.616;2023-04-06T04:26:40;0.20;80.00
18365;DHT22;9309;52.126;11.616;2023-04-06T04:29:08;0.20;80.20
18365;DHT22;9309;52.126;11.616;2023-04-06T04:31:36;0.00;81.40
18365;DHT22;9309;52.126;11.616;2023-04-06T04:34:06;0.10;81.60
18365;DHT22;9309;52.126;11.616;2023-04-06T04:36:33;0.20;80.70
18365;DHT22;9309;52.126;11.616;2023-04-06T04:39:04;0.20;80.40
18365;DHT22;9309;52.126;11.616;2023-04-06T04:41:37;0.40;79.80
18365;DHT22;9309;52.126;11.616;2023-04-06T04:44:07;0.30;79.20
18365;DHT22;9309;52.126;11.616;2023-04-06T04:46:34;0.30;79.50
18365;DHT22;9309;52.126;11.616;2023-04-06T04:49:01;0.30;79.50
18365;DHT22;9309;52.126;11.616;2023-04-06T04:51:29;0.40;79.30
18365;DHT22;9309;52.126;11.616;2023-04-06T04:54:08;0.40;79.50
18365;DHT22;9309;52.126;11.616;2023-04-06T04:56:36;0.30;79.40
18365;DHT22;9309;52.126;11.616;2023-04-06T04:59:13;0.20;80.60
18365;DHT22;9309;52.126;11.616;2023-04-06T05:01:45;0.20;80.10
18365;DHT22;9309;52.126;11.616;2023-04-06T05:04:12;0.20;80.60
18365;DHT22;9309;52.126;11.616;2023-04-06T05:06:39;0.30;79.80
18365;DHT22;9309;52.126;11.616;2023-04-06T05:09:07;0.40;79.70
18365;DHT22;9309;52.126;11.616;2023-04-06T05:11:33;0.40;79.70
18365;DHT22;9309;52.126;11.616;2023-04-06T05:14:02;0.40;80.10
18365;DHT22;9309;52.126;11.616;2023-04-06T05:16:28;0.40;80.40
18365;DHT22;9309;52.126;11.616;2023-04-06T05:18:55;0.40;79.40
18365;DHT22;9309;52.126;11.616;2023-04-06T05:21:25;0.40;80.70
18365;DHT22;9309;52.126;11.616;2023-04-06T05:24:00;0.50;79.60
18365;DHT22;9309;52.126;11.616;2023-04-06T05:26:28;0.70;78.70
18365;DHT22;9309;52.126;11.616;2023-04-06T05:29:02;0.70;78.50
18365;DHT22;9309;52.126;11.616;2023-04-06T05:31:32;0.70;78.80
18365;DHT22;9309;52.126;11.616;2023-04-06T05:33:59;0.80;78.60
18365;DHT22;9309;52.126;11.616;2023-04-06T05:36:30;0.60;78.40
18365;DHT22;9309;52.126;11.616;2023-04-06T05:39:02;0.60;79.40
18365;DHT22;9309;52.126;11.616;2023-04-06T05:41:36;0.60;79.00
18365;DHT22;9309;52.126;11.616;2023-04-06T05:44:04;0.80;78.00
18365;DHT22;9309;52.126;11.616;2023-04-06T05:46:32;0.90;77.20
18365;DHT22;9309;52.126;11.616;2023-04-06T05:49:00;0.90;76.90
18365;DHT22;9309;52.126;11.616;2023-04-06T05:51:30;1.00;76.90
18365;DHT22;9309;52.126;11.616;2023-04-06T05:53:57;1.10;75.90
18365;DHT22;9309;52.126;11.616;2023-04-06T05:56:24;1.20;75.80
18365;DHT22;9309;52.126;11.616;2023-04-06T05:58:52;1.00;76.30
18365;DHT22;9309;52.126;11.616;2023-04-06T06:01:25;1.00;76.80
18365;DHT22;9309;52.126;11.616;2023-04-06T06:03:52;1.20;76.50
18365;DHT22;9309;52.126;11.616;2023-04-06T06:06:19;1.50;74.90
18365;DHT22;9309;52.126;11.616;2023-04-06T06:09:15;1.20;75.10
18365;DHT22;9309;52.126;11.616;2023-04-06T06:11:58;1.20;76.10
18365;DHT22;9309;52.126;11.616;2023-04-06T06:14:26;1.10;75.60
18365;DHT22;9309;52.126;11.616;2023-04-06T06:16:55;1.00;75.90
18365;DHT22;9309;52.126;11.616;2023-04-06T06:19:22;1.10;75.70
18365;DHT22;9309;52.126;11.616;2023-04-06T06:21:51;1.10;75.60
18365;DHT22;9309;52.126;11.616;2023-04-06T06:24:18;1.20;76.10
18365;DHT22;9309;52.126;11.616;2023-04-06T06:26:45;1.30;75.30
18365;DHT22;9309;52.126;11.616;2023-04-06T06:29:15;1.40;75.10
18365;DHT22;9309;52.126;11.616;2023-04-06T06:31:42;1.70;74.30
18365;DHT22;9309;52.126;11.616;2023-04-06T06:34:11;1.70;73.20
18365;DHT22;9309;52.126;11.616;2023-04-06T06:36:39;1.80;73.30
18365;DHT22;9309;52.126;11.616;2023-04-06T06:39:08;1.90;73.20
18365;DHT22;9309;52.126;11.616;2023-04-06T06:41:36;1.90;73.20
18365;DHT22;9309;52.126;11.616;2023-04-06T06:44:04;2.10;72.50
18365;DHT22;9309;52.126;11.616;2023-04-06T06:46:30;2.10;73.20
18365;DHT22;9309;52.126;11.616;2023-04-06T06:48:58;2.20;72.70
18365;DHT22;9309;52.126;11.616;2023-04-06T06:51:26;2.30;72.10
18365;DHT22;9309;52.126;11.616;2023-04-06T06:53:53;2.30;71.10
18365;DHT22;9309;52.126;11.616;2023-04-06T06:56:20;2.30;71.30
18365;DHT22;9309;52.126;11.616;2023-04-06T06:58:48;2.40;71.00
18365;DHT22;9309;52.126;11.616;2023-04-06T07:01:15;2.50;70.10
18365;DHT22;9309;52.126;11.616;2023-04-06T07:03:42;2.60;70.40
18365;DHT22;9309;52.126;11.616;2023-04-06T07:06:09;2.80;70.50
18365;DHT22;9309;52.126;11.616;2023-04-06T07:08:40;2.90;69.20
18365;DHT22;9309;52.126;11.616;2023-04-06T07:11:07;3.00;68.70
18365;DHT22;9309;52.126;11.616;2023-04-06T07:13:34;3.20;68.00
18365;DHT22;9309;52.126;11.616;2023-04-06T07:16:01;3.50;67.50
18365;DHT22;9309;52.126;11.616;2023-04-06T07:18:28;3.80;66.90
18365;DHT22;9309;52.126;11.616;2023-04-06T07:20:55;4.00;65.50
18365;DHT22;9309;52.126;11.616;2023-04-06T07:23:22;4.00;65.60
18365;DHT22;9309;52.126;11.616;2023-04-06T07:25:50;4.20;65.10
18365;DHT22;9309;52.126;11.616;2023-04-06T07:28:18;4.00;65.10
18365;DHT22;9309;52.126;11.616;2023-04-06T07:30:45;4.00;65.30
18365;DHT22;9309;52.126;11.616;2023-04-06T07:33:12;4.00;65.40
18365;DHT22;9309;52.126;11.616;2023-04-06T07:35:40;3.90;66.10
18365;DHT22;9309;52.126;11.616;2023-04-06T07:38:07;4.20;65.90
18365;DHT22;9309;52.126;11.616;2023-04-06T07:40:35;4.40;65.20
18365;DHT22;9309;52.126;11.616;2023-04-06T07:43:03;4.30;64.80
18365;DHT22;9309;52.126;11.616;2023-04-06T07:45:30;4.10;65.60
18365;DHT22;9309;52.126;11.616;2023-04-06T07:47:58;4.10;66.00
18365;DHT22;9309;52.126;11.616;2023-04-06T07:50:26;4.30;65.80
18365;DHT22;9309;52.126;11.616;2023-04-06T07:52:53;4.50;64.30
18365;DHT22;9309;52.126;11.616;2023-04-06T07:55:20;4.50;64.10
18365;DHT22;9309;52.126;11.616;2023-04-06T07:57:47;4.80;64.60
18365;DHT22;9309;52.126;11.616;2023-04-06T08:00:15;5.20;62.70
18365;DHT22;9309;52.126;11.616;2023-04-06T08:02:42;5.40;62.80
18365;DHT22;9309;52.126;11.616;2023-04-06T08:05:09;5.10;62.30
18365;DHT22;9309;52.126;11.616;2023-04-06T08:07:36;5.20;62.20
18365;DHT22;9309;52.126;11.616;2023-04-06T08:10:03;5.40;62.00
18365;DHT22;9309;52.126;11.616;2023-04-06T08:12:31;5.70;60.80
18365;DHT22;9309;52.126;11.616;2023-04-06T08:14:58;5.60;61.60
18365;DHT22;9309;52.126;11.616;2023-04-06T08:17:26;5.80;60.20
18365;DHT22;9309;52.126;11.616;2023-04-06T08:19:55;5.70;61.30
18365;DHT22;9309;52.126;11.616;2023-04-06T08:22:22;5.90;60.20
18365;DHT22;9309;52.126;11.616;2023-04-06T08:24:48;6.10;59.20
18365;DHT22;9309;52.126;11.616;2023-04-06T08:27:15;6.20;58.90
18365;DHT22;9309;52.126;11.616;2023-04-06T08:29:42;6.40;58.20
18365;DHT22;9309;52.126;11.616;2023-04-06T08:32:08;6.40;58.10
18365;DHT22;9309;52.126;11.616;2023-04-06T08:34:37;6.50;57.80
18365;DHT22;9309;52.126;11.616;2023-04-06T08:37:04;6.50;56.40
18365;DHT22;9309;52.126;11.616;2023-04-06T08:39:30;6.70;56.40
18365;DHT22;9309;52.126;11.616;2023-04-06T08:41:59;6.70;54.70
18365;DHT22;9309;52.126;11.616;2023-04-06T08:44:28;6.90;54.20
18365;DHT22;9309;52.126;11.616;2023-04-06T08:46:55;7.00;52.10
18365;DHT22;9309;52.126;11.616;2023-04-06T08:49:22;6.90;53.30
18365;DHT22;9309;52.126;11.616;2023-04-06T08:51:50;7.00;53.10
18365;DHT22;9309;52.126;11.616;2023-04-06T08:54:17;7.10;52.70
18365;DHT22;9309;52.126;11.616;2023-04-06T08:56:44;7.60;51.80
18365;DHT22;9309;52.126;11.616;2023-04-06T08:59:11;8.00;51.70
18365;DHT22;9309;52.126;11.616;2023-04-06T09:01:40;8.80;50.40
18365;DHT22;9309;52.126;11.616;2023-04-06T09:04:07;9.50;48.10
18365;DHT22;9309;52.126;11.616;2023-04-06T09:06:36;10.70;44.80
18365;DHT22;9309;52.126;11.616;2023-04-06T09:09:04;10.50;43.50
18365;DHT22;9309;52.126;11.616;2023-04-06T09:11:44;10.50;43.60
18365;DHT22;9309;52.126;11.616;2023-04-06T09:14:11;10.50;45.40
18365;DHT22;9309;52.126;11.616;2023-04-06T09:16:42;9.60;46.90
18365;DHT22;9309;52.126;11.616;2023-04-06T09:19:09;8.50;48.70
18365;DHT22;9309;52.126;11.616;2023-04-06T09:21:36;8.90;47.70
18365;DHT22;9309;52.126;11.616;2023-04-06T09:24:06;9.00;46.60
18365;DHT22;9309;52.126;11.616;2023-04-06T09:26:44;9.40;46.60
18365;DHT22;9309;52.126;11.616;2023-04-06T09:29:22;9.80;45.60
18365;DHT22;9309;52.126;11.616;2023-04-06T09:31:48;9.00;46.40
18365;DHT22;9309;52.126;11.616;2023-04-06T09:34:20;8.60;47.40
18365;DHT22;9309;52.126;11.616;2023-04-06T09:36:47;8.20;48.70
18365;DHT22;9309;52.126;11.616;2023-04-06T09:39:15;8.60;49.20
18365;DHT22;9309;52.126;11.616;2023-04-06T09:41:50;9.10;49.00
18365;DHT22;9309;52.126;11.616;2023-04-06T09:44:16;10.00;45.80
18365;DHT22;9309;52.126;11.616;2023-04-06T09:46:44;10.90;44.60
18365;DHT22;9309;52.126;11.616;2023-04-06T09:49:13;11.70;42.30
18365;DHT22;9309;52.126;11.616;2023-04-06T09:51:41;12.90;40.60
18365;DHT22;9309;52.126;11.616;2023-04-06T09:54:11;13.50;39.00
18365;DHT22;9309;52.126;11.616;2023-04-06T09:56:46;13.60;38.40
18365;DHT22;9309;52.126;11.616;2023-04-06T09:59:18;14.20;37.10
18365;DHT22;9309;52.126;11.616;2023-04-06T10:01:48;15.70;35.20
18365;DHT22;9309;52.126;11.616;2023-04-06T10:04:24;15.70;34.90
18365;DHT22;9309;52.126;11.616;2023-04-06T10:06:54;14.90;35.90
18365;DHT22;9309;52.126;11.616;2023-04-06T10:09:24;14.70;35.70
18365;DHT22;9309;52.126;11.616;2023-04-06T10:11:53;14.00;36.30
18365;DHT22;9309;52.126;11.616;2023-04-06T10:14:20;12.70;36.80
18365;DHT22;9309;52.126;11.616;2023-04-06T10:16:48;11.80;38.80
18365;DHT22;9309;52.126;11.616;2023-04-06T10:19:20;11.30;40.00
18365;DHT22;9309;52.126;11.616;2023-04-06T10:21:51;12.30;39.90
18365;DHT22;9309;52.126;11.616;2023-04-06T10:24:19;13.70;36.70
18365;DHT22;9309;52.126;11.616;2023-04-06T10:26:58;13.70;36.20
18365;DHT22;9309;52.126;11.616;2023-04-06T10:29:25;12.60;37.30
18365;DHT22;9309;52.126;11.616;2023-04-06T10:31:52;12.50;36.90
18365;DHT22;9309;52.126;11.616;2023-04-06T10:34:20;12.60;36.60
18365;DHT22;9309;52.126;11.616;2023-04-06T10:36:47;12.50;37.30
18365;DHT22;9309;52.126;11.616;2023-04-06T10:39:14;12.70;35.70
18365;DHT22;9309;52.126;11.616;2023-04-06T10:41:41;13.10;35.20
18365;DHT22;9309;52.126;11.616;2023-04-06T10:44:17;13.00;35.30
18365;DHT22;9309;52.126;11.616;2023-04-06T10:46:52;13.70;34.00
18365;DHT22;9309;52.126;11.616;2023-04-06T10:49:19;14.20;34.20
18365;DHT22;9309;52.126;11.616;2023-04-06T10:51:51;14.70;32.60
18365;DHT22;9309;52.126;11.616;2023-04-06T10:54:19;15.50;31.50
18365;DHT22;9309;52.126;11.616;2023-04-06T10:56:47;16.50;30.90
18365;DHT22;9309;52.126;11.616;2023-04-06T10:59:18;16.50;30.70
18365;DHT22;9309;52.126;11.616;2023-04-06T11:01:45;18.30;28.50
18365;DHT22;9309;52.126;11.616;2023-04-06T11:04:16;19.70;26.70
18365;DHT22;9309;52.126;11.616;2023-04-06T11:06:46;19.10;25.10
18365;DHT22;9309;52.126;11.616;2023-04-06T11:09:23;18.80;26.00
18365;DHT22;9309;52.126;11.616;2023-04-06T11:11:50;19.20;26.40
18365;DHT22;9309;52.126;11.616;2023-04-06T11:14:19;22.10;23.90
18365;DHT22;9309;52.126;11.616;2023-04-06T11:16:47;23.80;21.00
18365;DHT22;9309;52.126;11.616;2023-04-06T11:19:15;24.40;21.00
18365;DHT22;9309;52.126;11.616;2023-04-06T11:21:44;23.60;21.90
18365;DHT22;9309;52.126;11.616;2023-04-06T11:24:13;22.70;21.70
18365;DHT22;9309;52.126;11.616;2023-04-06T11:26:42;21.30;22.30
18365;DHT22;9309;52.126;11.616;2023-04-06T11:29:09;22.90;22.30
18365;DHT22;9309;52.126;11.616;2023-04-06T11:31:42;23.70;22.00
18365;DHT22;9309;52.126;11.616;2023-04-06T11:34:10;22.50;21.90
18365;DHT22;9309;52.126;11.616;2023-04-06T11:36:40;20.80;24.70
18365;DHT22;9309;52.126;11.616;2023-04-06T11:39:07;21.70;22.80
18365;DHT22;9309;52.126;11.616;2023-04-06T11:41:34;21.90;22.60
18365;DHT22;9309;52.126;11.616;2023-04-06T11:44:02;21.80;22.90
18365;DHT22;9309;52.126;11.616;2023-04-06T11:46:29;22.60;22.90
18365;DHT22;9309;52.126;11.616;2023-04-06T11:49:00;24.50;20.90
18365;DHT22;9309;52.126;11.616;2023-04-06T11:51:27;24.10;20.40
18365;DHT22;9309;52.126;11.616;2023-04-06T11:53:55;21.00;22.20
18365;DHT22;9309;52.126;11.616;2023-04-06T11:56:27;20.80;22.00
18365;DHT22;9309;52.126;11.616;2023-04-06T11:58:56;22.20;21.60
18365;DHT22;9309;52.126;11.616;2023-04-06T12:01:23;24.70;20.00
18365;DHT22;9309;52.126;11.616;2023-04-06T12:03:50;24.10;20.30
18365;DHT22;9309;52.126;11.616;2023-04-06T12:06:18;22.40;22.00
18365;DHT22;9309;52.126;11.616;2023-04-06T12:08:45;24.10;21.30
18365;DHT22;9309;52.126;11.616;2023-04-06T12:11:12;24.40;20.60
18365;DHT22;9309;52.126;11.616;2023-04-06T12:13:39;27.10;19.10
18365;DHT22;9309;52.126;11.616;2023-04-06T12:16:06;25.90;19.30
18365;DHT22;9309;52.126;11.616;2023-04-06T12:18:46;24.40;20.20
18365;DHT22;9309;52.126;11.616;2023-04-06T12:21:13;23.90;20.60
18365;DHT22;9309;52.126;11.616;2023-04-06T12:23:41;21.70;22.20
18365;DHT22;9309;52.126;11.616;2023-04-06T12:26:11;22.10;22.60
18365;DHT22;9309;52.126;11.616;2023-04-06T12:28:40;23.20;20.70
18365;DHT22;9309;52.126;11.616;2023-04-06T12:31:07;23.60;20.50
18365;DHT22;9309;52.126;11.616;2023-04-06T12:33:34;22.10;21.30
18365;DHT22;9309;52.126;11.616;2023-04-06T12:36:01;19.60;23.20
18365;DHT22;9309;52.126;11.616;2023-04-06T12:38:27;19.50;23.50
18365;DHT22;9309;52.126;11.616;2023-04-06T12:40:57;21.20;23.00
18365;DHT22;9309;52.126;11.616;2023-04-06T12:43:24;24.00;20.80
18365;DHT22;9309;52.126;11.616;2023-04-06T12:45:50;23.30;21.10
18365;DHT22;9309;52.126;11.616;2023-04-06T12:48:17;25.40;19.70
18365;DHT22;9309;52.126;11.616;2023-04-06T12:50:44;23.30;20.50
18365;DHT22;9309;52.126;11.616;2023-04-06T12:53:10;21.70;21.50
18365;DHT22;9309;52.126;11.616;2023-04-06T12:55:37;20.30;23.60
18365;DHT22;9309;52.126;11.616;2023-04-06T12:58:05;20.10;22.60
18365;DHT22;9309;52.126;11.616;2023-04-06T13:00:32;20.10;23.30
18365;DHT22;9309;52.126;11.616;2023-04-06T13:02:58;20.20;22.90
18365;DHT22;9309;52.126;11.616;2023-04-06T13:05:28;20.70;22.50
18365;DHT22;9309;52.126;11.616;2023-04-06T13:07:55;21.00;22.50
18365;DHT22;9309;52.126;11.616;2023-04-06T13:10:22;21.80;22.00
18365;DHT22;9309;52.126;11.616;2023-04-06T13:12:49;22.40;21.60
18365;DHT22;9309;52.126;11.616;2023-04-06T13:15:17;22.30;21.40
18365;DHT22;9309;52.126;11.616;2023-04-06T13:17:44;21.90;22.20
18365;DHT22;9309;52.126;11.616;2023-04-06T13:20:12;20.50;22.70
18365;DHT22;9309;52.126;11.616;2023-04-06T13:22:39;22.00;22.00
18365;DHT22;9309;52.126;11.616;2023-04-06T13:25:06;21.50;22.40
18365;DHT22;9309;52.126;11.616;2023-04-06T13:27:32;20.70;22.50
18365;DHT22;9309;52.126;11.616;2023-04-06T13:30:01;21.70;21.80
18365;DHT22;9309;52.126;11.616;2023-04-06T13:32:29;23.60;20.90
18365;DHT22;9309;52.126;11.616;2023-04-06T13:34:56;23.00;21.00
18365;DHT22;9309;52.126;11.616;2023-04-06T13:37:24;22.60;20.40
18365;DHT22;9309;52.126;11.616;2023-04-06T13:39:50;22.00;20.80
18365;DHT22;9309;52.126;11.616;2023-04-06T13:42:17;22.60;20.70
18365;DHT22;9309;52.126;11.616;2023-04-06T13:44:44;21.80;21.20
18365;DHT22;9309;52.126;11.616;2023-04-06T13:47:13;22.30;21.90
18365;DHT22;9309;52.126;11.616;2023-04-06T13:49:42;22.30;21.00
18365;DHT22;9309;52.126;11.616;2023-04-06T13:52:08;21.30;22.20
18365;DHT22;9309;52.126;11.616;2023-04-06T13:54:36;20.40;21.90
18365;DHT22;9309;52.126;11.616;2023-04-06T13:57:03;19.20;24.20
18365;DHT22;9309;52.126;11.616;2023-04-06T13:59:32;19.20;24.40
18365;DHT22;9309;52.126;11.616;2023-04-06T14:01:59;20.00;23.10
18365;DHT22;9309;52.126;11.616;2023-04-06T14:04:25;20.50;22.60
18365;DHT22;9309;52.126;11.616;2023-04-06T14:06:53;21.00;22.30
18365;DHT22;9309;52.126;11.616;2023-04-06T14:09:20;21.30;22.10
18365;DHT22;9309;52.126;11.616;2023-04-06T14:11:47;22.10;21.80
18365;DHT22;9309;52.126;11.616;2023-04-06T14:14:13;20.50;21.70
18365;DHT22;9309;52.126;11.616;2023-04-06T14:16:40;18.40;24.30
18365;DHT22;9309;52.126;11.616;2023-04-06T14:19:09;17.10;25.90
18365;DHT22;9309;52.126;11.616;2023-04-06T14:21:36;16.20;27.10
18365;DHT22;9309;52.126;11.616;2023-04-06T14:24:06;16.20;27.00
18365;DHT22;9309;52.126;11.616;2023-04-06T14:26:33;15.40;28.00
18365;DHT22;9309;52.126;11.616;2023-04-06T14:29:00;15.60;27.70
18365;DHT22;9309;52.126;11.616;2023-04-06T14:31:28;14.80;28.00
18365;DHT22;9309;52.126;11.616;2023-04-06T14:33:54;14.10;29.10
18365;DHT22;9309;52.126;11.616;2023-04-06T14:36:21;13.90;30.10
18365;DHT22;9309;52.126;11.616;2023-04-06T14:38:48;13.70;29.10
18365;DHT22;9309;52.126;11.616;2023-04-06T14:41:16;13.50;30.20
18365;DHT22;9309;52.126;11.616;2023-04-06T14:43:44;13.50;31.00
18365;DHT22;9309;52.126;11.616;2023-04-06T14:46:11;13.50;30.10
18365;DHT22;9309;52.126;11.616;2023-04-06T14:48:37;13.50;29.70
18365;DHT22;9309;52.126;11.616;2023-04-06T14:51:04;13.30;30.20
18365;DHT22;9309;52.126;11.616;2023-04-06T14:53:31;13.20;30.10
18365;DHT22;9309;52.126;11.616;2023-04-06T14:55:57;13.10;30.40
18365;DHT22;9309;52.126;11.616;2023-04-06T14:58:26;13.10;30.70
18365;DHT22;9309;52.126;11.616;2023-04-06T15:00:55;13.20;30.40
18365;DHT22;9309;52.126;11.616;2023-04-06T15:03:22;13.10;30.40
18365;DHT22;9309;52.126;11.616;2023-04-06T15:05:50;12.90;30.20
18365;DHT22;9309;52.126;11.616;2023-04-06T15:08:17;12.90;31.20
18365;DHT22;9309;52.126;11.616;2023-04-06T15:10:45;12.90;30.80
18365;DHT22;9309;52.126;11.616;2023-04-06T15:13:12;13.00;30.90
18365;DHT22;9309;52.126;11.616;2023-04-06T15:15:41;13.00;31.00
18365;DHT22;9309;52.126;11.616;2023-04-06T15:18:08;13.10;31.00
18365;DHT22;9309;52.126;11.616;2023-04-06T15:20:35;13.00;30.80
18365;DHT22;9309;52.126;11.616;2023-04-06T15:23:03;12.60;32.30
18365;DHT22;9309;52.126;11.616;2023-04-06T15:25:30;12.50;32.80
18365;DHT22;9309;52.126;11.616;2023-04-06T15:27:57;12.50;32.70
18365;DHT22;9309;52.126;11.616;2023-04-06T15:30:23;12.60;32.00
18365;DHT22;9309;52.126;11.616;2023-04-06T15:32:53;12.80;32.00
18365;DHT22;9309;52.126;11.616;2023-04-06T15:35:22;12.70;31.20
18365;DHT22;9309;52.126;11.616;2023-04-06T15:37:48;12.70;31.30
18365;DHT22;9309;52.126;11.616;2023-04-06T15:40:15;12.90;30.50
18365;DHT22;9309;52.126;11.616;2023-04-06T15:42:42;12.70;31.90
18365;DHT22;9309;52.126;11.616;2023-04-06T15:45:09;12.60;31.70
18365;DHT22;9309;52.126;11.616;2023-04-06T15:47:36;12.50;32.00